sensor_id;sensor_type;location;lat;lon;timestamp;P1;durP1;ratioP1;P2;durP2;ratioP2
42754;SDS011;28407;51.830;5.684;2023-04-09T00:01:46;13.07;;;9.48;;
42754;SDS011;28407;51.830;5.684;2023-04-09T00:03:47;12.27;;;10.32;;
42754;SDS011;28407;51.830;5.684;2023-04-09T00:05:48;11.85;;;9.32;;
42754;SDS011;28407;51.830;5.684;2023-04-09T00:07:48;13.00;;;10.25;;
42754;SDS011;28407;51.830;5.684;2023-04-09T00:09:49;12.15;;;10.38;;
42754;SDS011;28407;51.830;5.684;2023-04-09T00:11:49;12.10;;;9.43;;
42754;SDS011;28407;51.830;5.684;2023-04-09T00:13:50;12.02;;;9.88;;
42754;SDS011;28407;51.830;5.684;2023-04-09T00:15:50;12.05;;;9.40;;
42754;SDS011;28407;51.830;5.684;2023-04-09T00:17:51;11.77;;;9.77;;
42754;SDS011;28407;51.830;5.684;2023-04-09T00:19:52;12.25;;;9.40;;
42754;SDS011;28407;51.830;5.684;2023-04-09T00:21:52;12.57;;;9.02;;
42754;SDS011;28407;51.830;5.684;2023-04-09T00:23:53;11.00;;;9.52;;
42754;SDS011;28407;51.830;5.684;2023-04-09T00:25:53;13.32;;;9.55;;
42754;SDS011;28407;51.830;5.684;2023-04-09T00:27:54;11.70;;;9.15;;
42754;SDS011;28407;51.830;5.684;2023-04-09T00:29:55;12.48;;;9.60;;
42754;SDS011;28407;51.830;5.684;2023-04-09T00:31:56;13.05;;;10.18;;
42754;SDS011;28407;51.830;5.684;2023-04-09T00:33:57;11.77;;;10.20;;
42754;SDS011;28407;51.830;5.684;2023-04-09T00:35:57;12.73;;;10.38;;
42754;SDS011;28407;51.830;5.684;2023-04-09T00:37:58;11.73;;;9.80;;
42754;SDS011;28407;51.830;5.684;2023-04-09T00:39:59;13.05;;;9.35;;
42754;SDS011;28407;51.830;5.684;2023-04-09T00:42:00;12.90;;;10.75;;
42754;SDS011;28407;51.830;5.684;2023-04-09T00:44:03;14.20;;;10.82;;
42754;SDS011;28407;51.830;5.684;2023-04-09T00:46:04;12.77;;;9.55;;
42754;SDS011;28407;51.830;5.684;2023-04-09T00:48:05;12.75;;;10.30;;
42754;SDS011;28407;51.830;5.684;2023-04-09T00:50:06;13.93;;;10.95;;
42754;SDS011;28407;51.830;5.684;2023-04-09T00:52:07;11.90;;;9.77;;
42754;SDS011;28407;51.830;5.684;2023-04-09T00:54:08;12.73;;;11.00;;
42754;SDS011;28407;51.830;5.684;2023-04-09T00:56:09;12.20;;;10.25;;
42754;SDS011;28407;51.830;5.684;2023-04-09T00:58:11;11.45;;;9.07;;
42754;SDS011;28407;51.830;5.684;2023-04-09T01:00:12;11.38;;;9.48;;
42754;SDS011;28407;51.830;5.684;2023-04-09T01:02:13;12.30;;;10.43;;
42754;SDS011;28407;51.830;5.684;2023-04-09T01:04:14;13.05;;;9.90;;
42754;SDS011;28407;51.830;5.684;2023-04-09T01:07:18;12.18;;;10.15;;
42754;SDS011;28407;51.830;5.684;2023-04-09T01:09:12;10.65;;;8.90;;
42754;SDS011;28407;51.830;5.684;2023-04-09T01:14:04;12.82;;;10.55;;
42754;SDS011;28407;51.830;5.684;2023-04-09T01:16:19;12.48;;;9.60;;
42754;SDS011;28407;51.830;5.684;2023-04-09T01:18:34;13.00;;;10.70;;
42754;SDS011;28407;51.830;5.684;2023-04-09T01:20:55;14.15;;;11.95;;
42754;SDS011;28407;51.830;5.684;2023-04-09T01:23:01;11.35;;;9.35;;
42754;SDS011;28407;51.830;5.684;2023-04-09T01:27:48;13.10;;;10.40;;
42754;SDS011;28407;51.830;5.684;2023-04-09T01:30:15;12.35;;;10.40;;
42754;SDS011;28407;51.830;5.684;2023-04-09T01:32:17;13.02;;;10.15;;
42754;SDS011;28407;51.830;5.684;2023-04-09T01:34:20;11.75;;;9.70;;
42754;SDS011;28407;51.830;5.684;2023-04-09T01:36:21;13.63;;;10.98;;
42754;SDS011;28407;51.830;5.684;2023-04-09T01:38:23;13.32;;;10.07;;
42754;SDS011;28407;51.830;5.684;2023-04-09T01:40:25;13.85;;;10.48;;
42754;SDS011;28407;51.830;5.684;2023-04-09T01:42:26;15.23;;;11.45;;
42754;SDS011;28407;51.830;5.684;2023-04-09T01:44:27;11.63;;;9.75;;
42754;SDS011;28407;51.830;5.684;2023-04-09T01:46:28;14.95;;;11.15;;
42754;SDS011;28407;51.830;5.684;2023-04-09T01:48:30;13.35;;;10.50;;
42754;SDS011;28407;51.830;5.684;2023-04-09T01:50:32;12.27;;;10.32;;
42754;SDS011;28407;51.830;5.684;2023-04-09T01:52:33;16.30;;;11.70;;
42754;SDS011;28407;51.830;5.684;2023-04-09T01:54:34;16.10;;;13.32;;
42754;SDS011;28407;51.830;5.684;2023-04-09T01:56:44;14.38;;;10.50;;
42754;SDS011;28407;51.830;5.684;2023-04-09T01:58:46;14.35;;;10.75;;
42754;SDS011;28407;51.830;5.684;2023-04-09T02:00:47;13.05;;;10.52;;
42754;SDS011;28407;51.830;5.684;2023-04-09T02:02:56;13.52;;;10.75;;
42754;SDS011;28407;51.830;5.684;2023-04-09T02:05:06;12.35;;;10.02;;
42754;SDS011;28407;51.830;5.684;2023-04-09T02:07:29;14.35;;;12.18;;
42754;SDS011;28407;51.830;5.684;2023-04-09T02:09:38;14.52;;;11.02;;
42754;SDS011;28407;51.830;5.684;2023-04-09T02:11:40;14.80;;;10.95;;
42754;SDS011;28407;51.830;5.684;2023-04-09T02:13:42;13.88;;;11.43;;
42754;SDS011;28407;51.830;5.684;2023-04-09T02:15:44;13.40;;;10.20;;
42754;SDS011;28407;51.830;5.684;2023-04-09T02:17:46;15.75;;;11.57;;
42754;SDS011;28407;51.830;5.684;2023-04-09T02:19:47;16.92;;;12.35;;
42754;SDS011;28407;51.830;5.684;2023-04-09T02:21:48;13.07;;;10.18;;
42754;SDS011;28407;51.830;5.684;2023-04-09T02:23:49;15.13;;;11.30;;
42754;SDS011;28407;51.830;5.684;2023-04-09T02:25:50;13.10;;;11.13;;
42754;SDS011;28407;51.830;5.684;2023-04-09T02:27:52;14.25;;;10.77;;
42754;SDS011;28407;51.830;5.684;2023-04-09T02:29:52;13.13;;;10.65;;
42754;SDS011;28407;51.830;5.684;2023-04-09T02:31:53;14.43;;;11.18;;
42754;SDS011;28407;51.830;5.684;2023-04-09T02:33:54;13.90;;;10.27;;
42754;SDS011;28407;51.830;5.684;2023-04-09T02:35:55;13.35;;;10.77;;
42754;SDS011;28407;51.830;5.684;2023-04-09T02:37:56;15.07;;;10.75;;
42754;SDS011;28407;51.830;5.684;2023-04-09T02:39:56;15.20;;;11.38;;
42754;SDS011;28407;51.830;5.684;2023-04-09T02:41:57;13.73;;;11.02;;
42754;SDS011;28407;51.830;5.684;2023-04-09T02:45:59;15.65;;;11.52;;
42754;SDS011;28407;51.830;5.684;2023-04-09T02:48:00;14.38;;;10.25;;
42754;SDS011;28407;51.830;5.684;2023-04-09T02:50:05;13.63;;;10.70;;
42754;SDS011;28407;51.830;5.684;2023-04-09T02:52:08;13.55;;;10.98;;
42754;SDS011;28407;51.830;5.684;2023-04-09T02:54:10;12.77;;;10.65;;
42754;SDS011;28407;51.830;5.684;2023-04-09T02:56:10;15.45;;;11.13;;
42754;SDS011;28407;51.830;5.684;2023-04-09T02:58:11;12.82;;;10.45;;
42754;SDS011;28407;51.830;5.684;2023-04-09T03:00:12;13.68;;;10.30;;
42754;SDS011;28407;51.830;5.684;2023-04-09T03:02:13;15.18;;;11.98;;
42754;SDS011;28407;51.830;5.684;2023-04-09T03:04:13;15.05;;;10.68;;
42754;SDS011;28407;51.830;5.684;2023-04-09T03:06:14;13.80;;;11.43;;
42754;SDS011;28407;51.830;5.684;2023-04-09T03:08:14;16.38;;;11.45;;
42754;SDS011;28407;51.830;5.684;2023-04-09T03:10:16;15.45;;;11.63;;
42754;SDS011;28407;51.830;5.684;2023-04-09T03:12:17;19.02;;;12.80;;
42754;SDS011;28407;51.830;5.684;2023-04-09T03:14:18;14.02;;;10.65;;
42754;SDS011;28407;51.830;5.684;2023-04-09T03:16:18;14.57;;;12.18;;
42754;SDS011;28407;51.830;5.684;2023-04-09T03:18:19;14.18;;;11.35;;
42754;SDS011;28407;51.830;5.684;2023-04-09T03:20:20;14.77;;;11.10;;
42754;SDS011;28407;51.830;5.684;2023-04-09T03:22:20;15.18;;;11.07;;
42754;SDS011;28407;51.830;5.684;2023-04-09T03:24:25;15.77;;;12.18;;
42754;SDS011;28407;51.830;5.684;2023-04-09T03:26:26;15.18;;;11.52;;
42754;SDS011;28407;51.830;5.684;2023-04-09T03:28:27;14.35;;;11.13;;
42754;SDS011;28407;51.830;5.684;2023-04-09T03:30:28;14.88;;;11.48;;
42754;SDS011;28407;51.830;5.684;2023-04-09T03:32:30;18.73;;;14.75;;
42754;SDS011;28407;51.830;5.684;2023-04-09T03:34:31;17.47;;;13.73;;
42754;SDS011;28407;51.830;5.684;2023-04-09T03:36:32;23.73;;;15.75;;
42754;SDS011;28407;51.830;5.684;2023-04-09T03:38:36;22.58;;;15.15;;
42754;SDS011;28407;51.830;5.684;2023-04-09T03:40:43;21.85;;;15.15;;
42754;SDS011;28407;51.830;5.684;2023-04-09T03:42:43;22.65;;;15.20;;
42754;SDS011;28407;51.830;5.684;2023-04-09T03:44:47;20.40;;;16.15;;
42754;SDS011;28407;51.830;5.684;2023-04-09T03:46:58;23.67;;;16.60;;
42754;SDS011;28407;51.830;5.684;2023-04-09T03:48:59;25.58;;;16.88;;
42754;SDS011;28407;51.830;5.684;2023-04-09T03:51:12;24.08;;;17.55;;
42754;SDS011;28407;51.830;5.684;2023-04-09T03:53:18;25.27;;;18.75;;
42754;SDS011;28407;51.830;5.684;2023-04-09T03:55:19;24.47;;;17.80;;
42754;SDS011;28407;51.830;5.684;2023-04-09T03:57:21;24.20;;;17.08;;
42754;SDS011;28407;51.830;5.684;2023-04-09T03:59:24;25.23;;;18.20;;
42754;SDS011;28407;51.830;5.684;2023-04-09T04:01:25;23.30;;;15.32;;
42754;SDS011;28407;51.830;5.684;2023-04-09T04:03:32;21.65;;;15.57;;
42754;SDS011;28407;51.830;5.684;2023-04-09T04:05:44;24.33;;;16.67;;
42754;SDS011;28407;51.830;5.684;2023-04-09T04:07:48;22.25;;;16.58;;
42754;SDS011;28407;51.830;5.684;2023-04-09T04:09:53;18.95;;;13.82;;
42754;SDS011;28407;51.830;5.684;2023-04-09T04:11:54;20.80;;;15.95;;
42754;SDS011;28407;51.830;5.684;2023-04-09T04:14:01;21.02;;;14.85;;
42754;SDS011;28407;51.830;5.684;2023-04-09T04:16:05;20.20;;;14.05;;
42754;SDS011;28407;51.830;5.684;2023-04-09T04:18:09;18.48;;;13.55;;
42754;SDS011;28407;51.830;5.684;2023-04-09T04:20:22;20.45;;;14.20;;
42754;SDS011;28407;51.830;5.684;2023-04-09T04:22:30;20.77;;;14.52;;
42754;SDS011;28407;51.830;5.684;2023-04-09T04:24:33;17.05;;;13.30;;
42754;SDS011;28407;51.830;5.684;2023-04-09T04:26:34;19.02;;;13.57;;
42754;SDS011;28407;51.830;5.684;2023-04-09T04:28:35;18.02;;;13.73;;
42754;SDS011;28407;51.830;5.684;2023-04-09T04:30:39;17.48;;;13.35;;
42754;SDS011;28407;51.830;5.684;2023-04-09T04:32:41;16.67;;;12.32;;
42754;SDS011;28407;51.830;5.684;2023-04-09T04:34:47;16.58;;;12.85;;
42754;SDS011;28407;51.830;5.684;2023-04-09T04:36:54;16.20;;;13.32;;
42754;SDS011;28407;51.830;5.684;2023-04-09T04:38:55;16.63;;;12.93;;
42754;SDS011;28407;51.830;5.684;2023-04-09T04:41:03;16.95;;;12.27;;
42754;SDS011;28407;51.830;5.684;2023-04-09T04:43:07;17.45;;;13.05;;
42754;SDS011;28407;51.830;5.684;2023-04-09T04:45:08;15.90;;;11.98;;
42754;SDS011;28407;51.830;5.684;2023-04-09T04:47:17;16.02;;;12.20;;
42754;SDS011;28407;51.830;5.684;2023-04-09T04:49:18;14.93;;;11.38;;
42754;SDS011;28407;51.830;5.684;2023-04-09T04:51:21;14.95;;;11.68;;
42754;SDS011;28407;51.830;5.684;2023-04-09T04:55:41;15.52;;;12.23;;
42754;SDS011;28407;51.830;5.684;2023-04-09T04:57:45;14.35;;;11.25;;
42754;SDS011;28407;51.830;5.684;2023-04-09T04:59:45;15.13;;;10.73;;
42754;SDS011;28407;51.830;5.684;2023-04-09T05:01:47;15.65;;;11.32;;
42754;SDS011;28407;51.830;5.684;2023-04-09T05:03:48;18.13;;;12.52;;
42754;SDS011;28407;51.830;5.684;2023-04-09T05:05:58;18.05;;;13.13;;
42754;SDS011;28407;51.830;5.684;2023-04-09T05:08:03;14.75;;;11.13;;
42754;SDS011;28407;51.830;5.684;2023-04-09T05:10:04;19.10;;;12.80;;
42754;SDS011;28407;51.830;5.684;2023-04-09T05:12:11;18.85;;;13.15;;
42754;SDS011;28407;51.830;5.684;2023-04-09T05:14:11;17.50;;;13.77;;
42754;SDS011;28407;51.830;5.684;2023-04-09T05:16:16;15.32;;;12.30;;
42754;SDS011;28407;51.830;5.684;2023-04-09T05:18:19;16.10;;;11.82;;
42754;SDS011;28407;51.830;5.684;2023-04-09T05:20:20;15.88;;;13.15;;
42754;SDS011;28407;51.830;5.684;2023-04-09T05:22:34;17.38;;;12.35;;
42754;SDS011;28407;51.830;5.684;2023-04-09T05:24:35;15.82;;;11.00;;
42754;SDS011;28407;51.830;5.684;2023-04-09T05:26:36;15.50;;;11.10;;
42754;SDS011;28407;51.830;5.684;2023-04-09T05:28:37;15.55;;;11.82;;
42754;SDS011;28407;51.830;5.684;2023-04-09T05:30:46;15.23;;;11.93;;
42754;SDS011;28407;51.830;5.684;2023-04-09T05:32:48;13.70;;;11.63;;
42754;SDS011;28407;51.830;5.684;2023-04-09T05:34:49;15.57;;;11.40;;
42754;SDS011;28407;51.830;5.684;2023-04-09T05:36:50;15.30;;;10.98;;
42754;SDS011;28407;51.830;5.684;2023-04-09T05:38:52;16.30;;;11.75;;
42754;SDS011;28407;51.830;5.684;2023-04-09T05:40:53;15.05;;;11.50;;
42754;SDS011;28407;51.830;5.684;2023-04-09T05:42:53;14.70;;;11.45;;
42754;SDS011;28407;51.830;5.684;2023-04-09T05:45:07;17.58;;;13.38;;
42754;SDS011;28407;51.830;5.684;2023-04-09T05:47:08;15.50;;;11.75;;
42754;SDS011;28407;51.830;5.684;2023-04-09T05:49:23;12.20;;;10.55;;
42754;SDS011;28407;51.830;5.684;2023-04-09T05:51:26;13.85;;;10.95;;
42754;SDS011;28407;51.830;5.684;2023-04-09T05:53:30;15.93;;;11.35;;
42754;SDS011;28407;51.830;5.684;2023-04-09T05:55:31;14.83;;;10.80;;
42754;SDS011;28407;51.830;5.684;2023-04-09T05:57:33;15.05;;;11.07;;
42754;SDS011;28407;51.830;5.684;2023-04-09T05:59:37;15.65;;;10.05;;
42754;SDS011;28407;51.830;5.684;2023-04-09T06:01:37;14.75;;;10.80;;
42754;SDS011;28407;51.830;5.684;2023-04-09T06:03:38;16.98;;;11.93;;
42754;SDS011;28407;51.830;5.684;2023-04-09T06:05:38;15.48;;;10.48;;
42754;SDS011;28407;51.830;5.684;2023-04-09T06:07:40;14.32;;;10.68;;
42754;SDS011;28407;51.830;5.684;2023-04-09T06:09:41;15.82;;;11.48;;
42754;SDS011;28407;51.830;5.684;2023-04-09T06:11:43;15.60;;;11.23;;
42754;SDS011;28407;51.830;5.684;2023-04-09T06:13:44;14.65;;;9.88;;
42754;SDS011;28407;51.830;5.684;2023-04-09T06:15:45;14.23;;;10.55;;
42754;SDS011;28407;51.830;5.684;2023-04-09T06:17:46;13.07;;;10.95;;
42754;SDS011;28407;51.830;5.684;2023-04-09T06:19:46;14.50;;;11.38;;
42754;SDS011;28407;51.830;5.684;2023-04-09T06:21:47;16.52;;;10.85;;
42754;SDS011;28407;51.830;5.684;2023-04-09T06:23:47;14.98;;;11.73;;
42754;SDS011;28407;51.830;5.684;2023-04-09T06:25:48;16.02;;;11.93;;
42754;SDS011;28407;51.830;5.684;2023-04-09T06:27:48;14.80;;;11.70;;
42754;SDS011;28407;51.830;5.684;2023-04-09T06:29:49;15.77;;;10.95;;
42754;SDS011;28407;51.830;5.684;2023-04-09T06:31:50;15.95;;;11.95;;
42754;SDS011;28407;51.830;5.684;2023-04-09T06:33:50;18.00;;;11.98;;
42754;SDS011;28407;51.830;5.684;2023-04-09T06:35:51;15.38;;;12.18;;
42754;SDS011;28407;51.830;5.684;2023-04-09T06:37:51;17.85;;;12.05;;
42754;SDS011;28407;51.830;5.684;2023-04-09T06:39:52;15.90;;;12.23;;
42754;SDS011;28407;51.830;5.684;2023-04-09T06:41:52;15.95;;;10.75;;
42754;SDS011;28407;51.830;5.684;2023-04-09T06:44:05;14.07;;;11.27;;
42754;SDS011;28407;51.830;5.684;2023-04-09T06:46:06;17.75;;;11.52;;
42754;SDS011;28407;51.830;5.684;2023-04-09T06:48:06;16.48;;;11.35;;
42754;SDS011;28407;51.830;5.684;2023-04-09T06:50:07;15.38;;;11.38;;
42754;SDS011;28407;51.830;5.684;2023-04-09T06:52:08;16.05;;;11.27;;
42754;SDS011;28407;51.830;5.684;2023-04-09T06:54:08;15.75;;;12.05;;
42754;SDS011;28407;51.830;5.684;2023-04-09T06:56:09;17.25;;;13.30;;
42754;SDS011;28407;51.830;5.684;2023-04-09T06:58:10;15.80;;;11.60;;
42754;SDS011;28407;51.830;5.684;2023-04-09T07:00:11;15.70;;;11.80;;
42754;SDS011;28407;51.830;5.684;2023-04-09T07:02:12;16.43;;;12.90;;
42754;SDS011;28407;51.830;5.684;2023-04-09T07:04:12;16.45;;;11.85;;
42754;SDS011;28407;51.830;5.684;2023-04-09T07:06:13;15.38;;;12.20;;
42754;SDS011;28407;51.830;5.684;2023-04-09T07:08:14;15.82;;;12.27;;
42754;SDS011;28407;51.830;5.684;2023-04-09T07:10:14;16.60;;;12.70;;
42754;SDS011;28407;51.830;5.684;2023-04-09T07:12:24;15.27;;;12.45;;
42754;SDS011;28407;51.830;5.684;2023-04-09T07:14:26;16.53;;;12.20;;
42754;SDS011;28407;51.830;5.684;2023-04-09T07:16:27;15.75;;;12.38;;
42754;SDS011;28407;51.830;5.684;2023-04-09T07:18:27;18.90;;;13.60;;
42754;SDS011;28407;51.830;5.684;2023-04-09T07:20:29;15.85;;;12.38;;
42754;SDS011;28407;51.830;5.684;2023-04-09T07:22:30;16.52;;;13.68;;
42754;SDS011;28407;51.830;5.684;2023-04-09T07:24:30;15.43;;;12.73;;
42754;SDS011;28407;51.830;5.684;2023-04-09T07:26:31;15.95;;;11.80;;
42754;SDS011;28407;51.830;5.684;2023-04-09T07:28:32;17.17;;;12.70;;
42754;SDS011;28407;51.830;5.684;2023-04-09T07:30:33;17.35;;;12.52;;
42754;SDS011;28407;51.830;5.684;2023-04-09T07:32:33;16.25;;;12.48;;
42754;SDS011;28407;51.830;5.684;2023-04-09T07:34:34;16.23;;;11.65;;
42754;SDS011;28407;51.830;5.684;2023-04-09T07:36:34;14.82;;;11.63;;
42754;SDS011;28407;51.830;5.684;2023-04-09T07:38:35;16.40;;;12.02;;
42754;SDS011;28407;51.830;5.684;2023-04-09T07:40:35;14.13;;;12.18;;
42754;SDS011;28407;51.830;5.684;2023-04-09T07:42:36;15.10;;;12.18;;
42754;SDS011;28407;51.830;5.684;2023-04-09T07:44:38;15.80;;;11.77;;
42754;SDS011;28407;51.830;5.684;2023-04-09T07:46:38;16.50;;;12.73;;
42754;SDS011;28407;51.830;5.684;2023-04-09T07:48:40;19.30;;;13.35;;
42754;SDS011;28407;51.830;5.684;2023-04-09T07:50:40;16.75;;;11.95;;
42754;SDS011;28407;51.830;5.684;2023-04-09T07:52:41;15.18;;;11.45;;
42754;SDS011;28407;51.830;5.684;2023-04-09T07:54:42;15.57;;;12.10;;
42754;SDS011;28407;51.830;5.684;2023-04-09T07:56:42;14.65;;;12.18;;
42754;SDS011;28407;51.830;5.684;2023-04-09T07:58:43;17.20;;;12.80;;
42754;SDS011;28407;51.830;5.684;2023-04-09T08:00:43;17.20;;;13.23;;
42754;SDS011;28407;51.830;5.684;2023-04-09T08:02:44;18.75;;;14.00;;
42754;SDS011;28407;51.830;5.684;2023-04-09T08:04:45;16.48;;;12.18;;
42754;SDS011;28407;51.830;5.684;2023-04-09T08:06:46;17.50;;;12.60;;
42754;SDS011;28407;51.830;5.684;2023-04-09T08:08:49;16.50;;;12.07;;
42754;SDS011;28407;51.830;5.684;2023-04-09T08:10:50;14.95;;;12.55;;
42754;SDS011;28407;51.830;5.684;2023-04-09T08:12:50;15.60;;;11.70;;
42754;SDS011;28407;51.830;5.684;2023-04-09T08:14:51;14.85;;;11.35;;
42754;SDS011;28407;51.830;5.684;2023-04-09T08:16:52;16.00;;;11.60;;
42754;SDS011;28407;51.830;5.684;2023-04-09T08:18:52;11.93;;;10.02;;
42754;SDS011;28407;51.830;5.684;2023-04-09T08:20:53;16.83;;;12.50;;
42754;SDS011;28407;51.830;5.684;2023-04-09T08:22:54;14.88;;;11.25;;
42754;SDS011;28407;51.830;5.684;2023-04-09T08:24:55;13.73;;;10.88;;
42754;SDS011;28407;51.830;5.684;2023-04-09T08:26:57;14.00;;;12.50;;
42754;SDS011;28407;51.830;5.684;2023-04-09T08:28:57;14.20;;;11.23;;
42754;SDS011;28407;51.830;5.684;2023-04-09T08:30:58;13.57;;;10.18;;
42754;SDS011;28407;51.830;5.684;2023-04-09T08:32:59;14.15;;;10.90;;
42754;SDS011;28407;51.830;5.684;2023-04-09T08:35:00;13.70;;;10.23;;
42754;SDS011;28407;51.830;5.684;2023-04-09T08:37:01;13.05;;;10.60;;
42754;SDS011;28407;51.830;5.684;2023-04-09T08:39:02;13.55;;;10.73;;
42754;SDS011;28407;51.830;5.684;2023-04-09T08:41:03;13.10;;;9.90;;
42754;SDS011;28407;51.830;5.684;2023-04-09T08:43:05;13.68;;;10.13;;
42754;SDS011;28407;51.830;5.684;2023-04-09T08:45:06;15.27;;;11.80;;
42754;SDS011;28407;51.830;5.684;2023-04-09T08:47:08;14.35;;;11.20;;
42754;SDS011;28407;51.830;5.684;2023-04-09T08:49:12;12.07;;;9.55;;
42754;SDS011;28407;51.830;5.684;2023-04-09T08:51:16;14.60;;;11.20;;
42754;SDS011;28407;51.830;5.684;2023-04-09T08:53:18;14.10;;;11.35;;
42754;SDS011;28407;51.830;5.684;2023-04-09T08:55:21;13.27;;;11.05;;
42754;SDS011;28407;51.830;5.684;2023-04-09T08:57:22;13.85;;;10.10;;
42754;SDS011;28407;51.830;5.684;2023-04-09T08:59:22;14.40;;;10.52;;
42754;SDS011;28407;51.830;5.684;2023-04-09T09:01:24;12.30;;;10.02;;
42754;SDS011;28407;51.830;5.684;2023-04-09T09:03:26;12.57;;;10.15;;
42754;SDS011;28407;51.830;5.684;2023-04-09T09:05:45;16.27;;;11.80;;
42754;SDS011;28407;51.830;5.684;2023-04-09T09:07:52;14.30;;;11.73;;
42754;SDS011;28407;51.830;5.684;2023-04-09T09:09:54;13.75;;;9.82;;
42754;SDS011;28407;51.830;5.684;2023-04-09T09:11:56;10.65;;;8.70;;
42754;SDS011;28407;51.830;5.684;2023-04-09T09:14:16;14.23;;;10.90;;
42754;SDS011;28407;51.830;5.684;2023-04-09T09:16:18;11.60;;;9.38;;
42754;SDS011;28407;51.830;5.684;2023-04-09T09:18:39;14.93;;;8.98;;
42754;SDS011;28407;51.830;5.684;2023-04-09T09:20:41;12.68;;;9.20;;
42754;SDS011;28407;51.830;5.684;2023-04-09T09:22:51;12.00;;;9.15;;
42754;SDS011;28407;51.830;5.684;2023-04-09T09:24:53;12.00;;;8.70;;
42754;SDS011;28407;51.830;5.684;2023-04-09T09:26:54;10.07;;;8.35;;
42754;SDS011;28407;51.830;5.684;2023-04-09T09:28:56;12.07;;;8.45;;
42754;SDS011;28407;51.830;5.684;2023-04-09T09:31:06;11.35;;;8.73;;
42754;SDS011;28407;51.830;5.684;2023-04-09T09:33:08;12.07;;;8.73;;
42754;SDS011;28407;51.830;5.684;2023-04-09T09:35:09;11.13;;;8.55;;
42754;SDS011;28407;51.830;5.684;2023-04-09T09:37:25;9.52;;;8.13;;
42754;SDS011;28407;51.830;5.684;2023-04-09T09:39:41;12.60;;;9.27;;
42754;SDS011;28407;51.830;5.684;2023-04-09T09:41:46;11.93;;;9.40;;
42754;SDS011;28407;51.830;5.684;2023-04-09T09:43:47;11.80;;;8.93;;
42754;SDS011;28407;51.830;5.684;2023-04-09T09:45:48;10.80;;;8.38;;
42754;SDS011;28407;51.830;5.684;2023-04-09T09:47:50;12.18;;;9.20;;
42754;SDS011;28407;51.830;5.684;2023-04-09T09:49:52;11.45;;;8.50;;
42754;SDS011;28407;51.830;5.684;2023-04-09T09:51:54;12.20;;;8.73;;
42754;SDS011;28407;51.830;5.684;2023-04-09T09:53:58;12.82;;;9.30;;
42754;SDS011;28407;51.830;5.684;2023-04-09T09:55:59;11.63;;;9.18;;
42754;SDS011;28407;51.830;5.684;2023-04-09T09:58:00;12.55;;;8.40;;
42754;SDS011;28407;51.830;5.684;2023-04-09T10:00:03;11.55;;;9.32;;
42754;SDS011;28407;51.830;5.684;2023-04-09T10:02:22;11.00;;;8.23;;
42754;SDS011;28407;51.830;5.684;2023-04-09T10:04:26;9.90;;;8.30;;
42754;SDS011;28407;51.830;5.684;2023-04-09T10:06:28;10.63;;;7.80;;
42754;SDS011;28407;51.830;5.684;2023-04-09T10:08:30;10.27;;;7.87;;
42754;SDS011;28407;51.830;5.684;2023-04-09T10:10:33;10.20;;;7.70;;
42754;SDS011;28407;51.830;5.684;2023-04-09T10:12:34;9.85;;;8.27;;
42754;SDS011;28407;51.830;5.684;2023-04-09T10:14:34;11.23;;;7.88;;
42754;SDS011;28407;51.830;5.684;2023-04-09T10:16:36;9.55;;;7.57;;
42754;SDS011;28407;51.830;5.684;2023-04-09T10:18:37;10.02;;;7.57;;
42754;SDS011;28407;51.830;5.684;2023-04-09T10:20:39;10.45;;;7.82;;
42754;SDS011;28407;51.830;5.684;2023-04-09T10:22:46;9.32;;;7.20;;
42754;SDS011;28407;51.830;5.684;2023-04-09T10:24:49;7.63;;;6.25;;
42754;SDS011;28407;51.830;5.684;2023-04-09T10:27:08;7.57;;;6.20;;
42754;SDS011;28407;51.830;5.684;2023-04-09T10:29:11;8.55;;;6.78;;
42754;SDS011;28407;51.830;5.684;2023-04-09T10:31:16;8.60;;;5.95;;
42754;SDS011;28407;51.830;5.684;2023-04-09T10:33:20;7.78;;;6.18;;
42754;SDS011;28407;51.830;5.684;2023-04-09T10:35:26;8.93;;;7.22;;
42754;SDS011;28407;51.830;5.684;2023-04-09T10:37:27;7.65;;;6.25;;
42754;SDS011;28407;51.830;5.684;2023-04-09T10:39:32;8.18;;;6.13;;
42754;SDS011;28407;51.830;5.684;2023-04-09T10:41:32;9.10;;;6.78;;
42754;SDS011;28407;51.830;5.684;2023-04-09T10:43:34;8.45;;;6.70;;
42754;SDS011;28407;51.830;5.684;2023-04-09T10:45:39;8.13;;;6.07;;
42754;SDS011;28407;51.830;5.684;2023-04-09T10:47:41;8.70;;;6.57;;
42754;SDS011;28407;51.830;5.684;2023-04-09T10:49:42;7.88;;;6.00;;
42754;SDS011;28407;51.830;5.684;2023-04-09T10:51:50;8.23;;;6.35;;
42754;SDS011;28407;51.830;5.684;2023-04-09T10:54:00;8.27;;;5.65;;
42754;SDS011;28407;51.830;5.684;2023-04-09T10:56:04;8.10;;;6.13;;
42754;SDS011;28407;51.830;5.684;2023-04-09T10:58:14;8.15;;;5.82;;
42754;SDS011;28407;51.830;5.684;2023-04-09T11:00:15;7.65;;;6.15;;
42754;SDS011;28407;51.830;5.684;2023-04-09T11:06:58;8.20;;;5.82;;
42754;SDS011;28407;51.830;5.684;2023-04-09T11:09:00;6.50;;;4.80;;
42754;SDS011;28407;51.830;5.684;2023-04-09T11:11:04;9.15;;;6.93;;
42754;SDS011;28407;51.830;5.684;2023-04-09T11:13:05;6.30;;;5.22;;
42754;SDS011;28407;51.830;5.684;2023-04-09T11:15:14;7.47;;;5.97;;
42754;SDS011;28407;51.830;5.684;2023-04-09T11:17:15;6.28;;;4.90;;
42754;SDS011;28407;51.830;5.684;2023-04-09T11:19:18;8.40;;;6.35;;
42754;SDS011;28407;51.830;5.684;2023-04-09T11:21:19;7.70;;;6.22;;
42754;SDS011;28407;51.830;5.684;2023-04-09T11:23:20;6.82;;;5.15;;
42754;SDS011;28407;51.830;5.684;2023-04-09T11:25:21;7.18;;;5.50;;
42754;SDS011;28407;51.830;5.684;2023-04-09T11:27:24;6.28;;;5.00;;
42754;SDS011;28407;51.830;5.684;2023-04-09T11:29:24;7.43;;;5.30;;
42754;SDS011;28407;51.830;5.684;2023-04-09T11:31:26;8.18;;;4.75;;
42754;SDS011;28407;51.830;5.684;2023-04-09T11:33:31;6.43;;;4.65;;
42754;SDS011;28407;51.830;5.684;2023-04-09T11:35:33;8.38;;;6.20;;
42754;SDS011;28407;51.830;5.684;2023-04-09T11:37:35;7.00;;;5.10;;
42754;SDS011;28407;51.830;5.684;2023-04-09T11:39:35;7.25;;;5.57;;
42754;SDS011;28407;51.830;5.684;2023-04-09T11:41:36;6.15;;;4.68;;
42754;SDS011;28407;51.830;5.684;2023-04-09T11:43:37;6.15;;;4.88;;
42754;SDS011;28407;51.830;5.684;2023-04-09T11:45:38;7.47;;;5.28;;
42754;SDS011;28407;51.830;5.684;2023-04-09T11:47:39;6.28;;;4.95;;
42754;SDS011;28407;51.830;5.684;2023-04-09T11:49:41;6.90;;;5.35;;
42754;SDS011;28407;51.830;5.684;2023-04-09T11:51:42;7.03;;;4.97;;
42754;SDS011;28407;51.830;5.684;2023-04-09T11:53:42;5.20;;;4.10;;
42754;SDS011;28407;51.830;5.684;2023-04-09T11:55:45;7.82;;;5.80;;
42754;SDS011;28407;51.830;5.684;2023-04-09T11:57:47;6.80;;;4.53;;
42754;SDS011;28407;51.830;5.684;2023-04-09T11:59:50;6.85;;;4.85;;
42754;SDS011;28407;51.830;5.684;2023-04-09T12:01:51;7.03;;;5.35;;
42754;SDS011;28407;51.830;5.684;2023-04-09T12:03:53;7.18;;;5.68;;
42754;SDS011;28407;51.830;5.684;2023-04-09T12:05:54;6.72;;;4.40;;
42754;SDS011;28407;51.830;5.684;2023-04-09T12:08:01;5.35;;;4.47;;
42754;SDS011;28407;51.830;5.684;2023-04-09T12:10:06;6.97;;;5.07;;
42754;SDS011;28407;51.830;5.684;2023-04-09T12:12:09;6.47;;;4.35;;
42754;SDS011;28407;51.830;5.684;2023-04-09T12:14:14;6.67;;;4.93;;
42754;SDS011;28407;51.830;5.684;2023-04-09T12:16:17;6.68;;;4.88;;
42754;SDS011;28407;51.830;5.684;2023-04-09T12:18:20;7.07;;;4.65;;
42754;SDS011;28407;51.830;5.684;2023-04-09T12:22:33;6.30;;;4.60;;